createdAt,value
2022-08-17T00:02:21.772Z,22.90
2022-08-17T00:05:32.746Z,22.90
2022-08-17T00:08:40.303Z,22.80
2022-08-17T00:12:40.346Z,22.90
2022-08-17T00:15:14.596Z,22.70
2022-08-17T00:19:01.912Z,23.10
2022-08-17T00:21:59.980Z,22.70
2022-08-17T00:25:15.923Z,22.80
2022-08-17T00:28:20.877Z,22.70
2022-08-17T00:31:26.373Z,22.70
2022-08-17T00:34:29.668Z,22.60
2022-08-17T00:37:35.428Z,22.60
2022-08-17T00:40:44.934Z,22.60
2022-08-17T00:43:54.117Z,22.50
2022-08-17T00:46:58.682Z,22.00
2022-08-17T00:50:02.186Z,22.50
2022-08-17T00:53:06.535Z,24.40
2022-08-17T00:56:15.611Z,22.40
2022-08-17T00:59:24.178Z,22.40
2022-08-17T01:02:34.901Z,22.40
2022-08-17T01:05:49.399Z,22.30
2022-08-17T01:08:57.270Z,22.30
2022-08-17T01:12:01.912Z,22.20
2022-08-17T01:15:05.717Z,22.20
2022-08-17T01:18:13.464Z,22.10
2022-08-17T01:21:27.743Z,22.00
2022-08-17T01:24:33.709Z,21.90
2022-08-17T01:27:39.033Z,21.90
2022-08-17T01:30:59.003Z,19.10
2022-08-17T01:34:08.629Z,21.80
2022-08-17T01:37:13.899Z,21.70
2022-08-17T01:40:27.022Z,21.70
2022-08-17T01:43:41.127Z,21.60
2022-08-17T01:46:44.401Z,21.60
2022-08-17T01:49:47.594Z,21.60
2022-08-17T01:52:56.692Z,21.50
2022-08-17T01:56:07.730Z,21.50
2022-08-17T01:59:11.651Z,21.50
2022-08-17T02:02:31.132Z,21.40
2022-08-17T02:05:35.143Z,21.40
2022-08-17T02:08:57.047Z,21.40
2022-08-17T02:12:37.100Z,21.40
2022-08-17T02:15:27.174Z,21.40
2022-08-17T02:18:30.520Z,21.40
2022-08-17T02:21:34.045Z,21.30
2022-08-17T02:25:00.319Z,21.30
2022-08-17T02:28:05.846Z,21.30
2022-08-17T02:31:12.477Z,21.20
2022-08-17T02:34:16.813Z,21.20
2022-08-17T02:37:20.334Z,22.10
2022-08-17T02:40:35.081Z,19.40
2022-08-17T02:43:41.267Z,21.20
2022-08-17T02:46:44.635Z,21.00
2022-08-17T02:49:54.239Z,21.00
2022-08-17T02:53:02.346Z,21.00
2022-08-17T02:56:06.595Z,21.00
2022-08-17T02:59:11.307Z,20.90
2022-08-17T03:02:14.534Z,20.90
2022-08-17T03:05:23.395Z,20.90
2022-08-17T03:08:27.195Z,20.90
2022-08-17T03:11:30.469Z,20.80
2022-08-17T03:14:41.263Z,20.80
2022-08-17T03:17:46.016Z,20.90
2022-08-17T03:20:49.231Z,20.80
2022-08-17T03:23:54.339Z,20.80
2022-08-17T03:26:58.225Z,21.60
2022-08-17T03:30:03.398Z,20.40
2022-08-17T03:33:10.997Z,20.80
2022-08-17T03:36:14.978Z,20.70
2022-08-17T03:39:18.211Z,20.10
2022-08-17T03:42:31.307Z,20.70
2022-08-17T03:45:57.613Z,20.70
2022-08-17T03:49:18.570Z,20.70
2022-08-17T03:52:39.507Z,20.70
2022-08-17T03:56:00.501Z,20.60
2022-08-17T03:59:03.911Z,20.80
2022-08-17T04:02:15.200Z,20.60
2022-08-17T04:05:18.561Z,23.20
2022-08-17T04:08:22.093Z,20.50
2022-08-17T04:11:25.354Z,20.60
2022-08-17T04:14:31.109Z,20.60
2022-08-17T04:17:35.744Z,20.60
2022-08-17T04:20:39.026Z,20.60
2022-08-17T04:23:42.262Z,21.60
2022-08-17T04:26:52.981Z,19.90
2022-08-17T04:29:58.478Z,20.70
2022-08-17T04:33:08.606Z,20.70
2022-08-17T04:36:14.658Z,20.70
2022-08-17T04:39:17.947Z,21.70
2022-08-17T04:42:20.120Z,20.80
2022-08-17T04:45:23.830Z,20.80
2022-08-17T04:48:36.381Z,20.80
2022-08-17T04:51:54.644Z,20.80
2022-08-17T04:55:03.630Z,20.80
2022-08-17T04:58:07.324Z,20.90
2022-08-17T05:01:10.824Z,21.00
2022-08-17T05:04:33.221Z,21.40
2022-08-17T05:07:38.502Z,23.30
2022-08-17T05:10:45.339Z,21.80
2022-08-17T05:13:50.729Z,22.20
2022-08-17T05:16:53.938Z,22.60
2022-08-17T05:19:58.710Z,24.50
2022-08-17T05:23:07.080Z,23.40
2022-08-17T05:26:15.235Z,23.80
2022-08-17T05:29:35.250Z,24.30
2022-08-17T05:32:40.471Z,24.70
2022-08-17T05:35:48.753Z,25.10
2022-08-17T05:38:51.920Z,25.50
2022-08-17T05:41:55.103Z,25.90
2022-08-17T05:44:59.422Z,26.20
2022-08-17T05:48:03.106Z,26.60
2022-08-17T05:51:24.476Z,26.90
2022-08-17T05:54:43.609Z,27.20
2022-08-17T05:58:12.335Z,27.50
2022-08-17T06:01:33.236Z,27.70
2022-08-17T06:05:03.599Z,27.90
2022-08-17T06:08:22.832Z,28.10
2022-08-17T06:11:36.699Z,28.30
2022-08-17T06:14:59.360Z,28.50
2022-08-17T06:18:13.727Z,28.60
2022-08-17T06:21:23.735Z,28.80
2022-08-17T06:24:45.413Z,29.00
2022-08-17T06:27:55.250Z,29.10
2022-08-17T06:31:08.104Z,29.20
2022-08-17T06:34:13.913Z,29.30
2022-08-17T06:38:05.028Z,29.30
2022-08-17T06:41:22.624Z,29.30
2022-08-17T06:44:51.457Z,28.10
2022-08-17T06:48:05.722Z,29.40
2022-08-17T06:51:16.999Z,29.30
2022-08-17T06:54:32.773Z,29.50
2022-08-17T06:57:43.364Z,29.50
2022-08-17T07:00:49.521Z,29.70
2022-08-17T07:04:11.501Z,29.80
2022-08-17T07:07:48.703Z,29.90
2022-08-17T07:10:58.687Z,32.40
2022-08-17T07:14:25.051Z,30.20
2022-08-17T07:17:46.636Z,30.30
2022-08-17T07:20:58.925Z,30.40
2022-08-17T07:24:30.021Z,30.60
2022-08-17T07:27:40.238Z,30.60
2022-08-17T07:30:51.354Z,30.70
2022-08-17T07:34:08.412Z,30.80
2022-08-17T07:37:12.675Z,30.80
2022-08-17T07:40:37.556Z,30.90
2022-08-17T07:43:52.331Z,30.90
2022-08-17T07:47:15.900Z,31.50
2022-08-17T07:50:28.914Z,30.70
2022-08-17T07:53:32.162Z,30.60
2022-08-17T07:56:46.004Z,30.00
2022-08-17T08:00:16.273Z,30.40
2022-08-17T08:03:27.119Z,30.30
2022-08-17T08:06:32.147Z,30.30
2022-08-17T08:09:42.125Z,30.10
2022-08-17T08:12:48.447Z,30.10
2022-08-17T08:16:22.609Z,30.00
2022-08-17T08:19:29.231Z,30.20
2022-08-17T08:22:46.047Z,29.60
2022-08-17T08:26:05.040Z,29.80
2022-08-17T08:29:22.494Z,30.10
2022-08-17T08:32:47.994Z,29.80
2022-08-17T08:36:04.764Z,29.80
2022-08-17T08:39:34.863Z,29.80
2022-08-17T08:42:50.409Z,29.50
2022-08-17T08:46:00.682Z,29.80
2022-08-17T08:50:04.300Z,29.80
2022-08-17T08:53:31.982Z,30.30
2022-08-17T08:56:59.194Z,29.90
2022-08-17T09:00:15.748Z,30.20
2022-08-17T09:03:53.199Z,29.40
2022-08-17T09:07:17.239Z,29.90
2022-08-17T09:10:30.776Z,29.90
2022-08-17T09:13:47.134Z,30.00
2022-08-17T09:17:07.408Z,30.00
2022-08-17T09:20:27.436Z,30.00
2022-08-17T09:23:38.278Z,29.90
2022-08-17T09:26:52.452Z,30.00
2022-08-17T09:30:02.510Z,29.90
2022-08-17T09:33:11.520Z,29.80
2022-08-17T09:36:29.260Z,29.80
2022-08-17T09:39:46.497Z,29.70
2022-08-17T09:42:56.627Z,29.70
2022-08-17T09:46:08.247Z,29.60
2022-08-17T09:49:25.117Z,29.60
2022-08-17T09:52:31.535Z,29.60
2022-08-17T09:55:53.421Z,30.20
2022-08-17T09:59:22.447Z,29.70
2022-08-17T10:03:01.471Z,29.80
2022-08-17T10:06:13.723Z,29.80
2022-08-17T10:09:36.677Z,29.90
2022-08-17T10:12:47.634Z,30.00
2022-08-17T10:16:07.762Z,31.50
2022-08-17T10:19:22.255Z,30.10
2022-08-17T10:22:54.813Z,30.10
2022-08-17T10:26:17.569Z,30.10
2022-08-17T10:29:29.918Z,30.20
2022-08-17T10:32:55.170Z,30.20
2022-08-17T10:36:12.235Z,30.20
2022-08-17T10:39:31.896Z,30.20
2022-08-17T10:42:44.497Z,30.10
2022-08-17T10:46:09.203Z,30.00
2022-08-17T10:49:34.165Z,30.10
2022-08-17T10:52:52.782Z,30.10
2022-08-17T10:56:23.777Z,30.10
2022-08-17T10:59:51.812Z,30.10
2022-08-17T11:02:57.458Z,30.10
2022-08-17T11:06:15.212Z,30.10
2022-08-17T11:09:53.370Z,30.10
2022-08-17T11:13:08.522Z,30.10
2022-08-17T11:16:38.748Z,30.10
2022-08-17T11:20:19.290Z,30.10
2022-08-17T11:24:07.615Z,31.30
2022-08-17T11:27:28.351Z,30.00
2022-08-17T11:30:52.628Z,30.00
2022-08-17T11:34:05.975Z,29.90
2022-08-17T11:37:45.948Z,29.90
2022-08-17T11:41:21.087Z,29.90
2022-08-17T11:44:40.749Z,27.70
2022-08-17T11:48:27.877Z,29.80
2022-08-17T11:52:11.333Z,29.80
2022-08-17T11:56:04.219Z,29.80
2022-08-17T12:00:00.239Z,29.80
2022-08-17T12:03:55.449Z,29.80
2022-08-17T12:07:08.201Z,27.70
2022-08-17T12:10:16.131Z,29.90
2022-08-17T12:13:21.573Z,30.00
2022-08-17T12:16:26.821Z,30.00
2022-08-17T12:19:33.867Z,30.00
2022-08-17T12:22:56.528Z,30.10
2022-08-17T12:26:12.946Z,30.80
2022-08-17T12:29:35.938Z,30.20
2022-08-17T12:32:47.600Z,30.20
2022-08-17T12:36:00.094Z,30.20
2022-08-17T12:39:13.955Z,30.20
2022-08-17T12:42:26.557Z,30.20
2022-08-17T12:45:33.644Z,30.10
2022-08-17T12:48:38.411Z,30.00
2022-08-17T12:51:45.924Z,29.90
2022-08-17T12:54:56.176Z,31.10
2022-08-17T12:58:00.849Z,29.70
2022-08-17T13:01:09.790Z,29.50
2022-08-17T13:04:17.186Z,29.50
2022-08-17T13:07:46.518Z,29.50
2022-08-17T13:10:57.671Z,29.50
2022-08-17T13:14:11.726Z,29.60
2022-08-17T13:17:27.544Z,29.60
2022-08-17T13:20:33.364Z,29.60
2022-08-17T13:23:36.713Z,30.10
2022-08-17T13:26:46.642Z,29.70
2022-08-17T13:29:55.715Z,29.70
2022-08-17T13:33:00.376Z,29.70
2022-08-17T13:36:11.391Z,29.80
2022-08-17T13:39:26.491Z,29.80
2022-08-17T13:42:51.780Z,29.80
2022-08-17T13:46:10.746Z,29.50
2022-08-17T13:49:23.214Z,27.70
2022-08-17T13:52:41.071Z,29.80
2022-08-17T13:55:51.676Z,29.80
2022-08-17T13:59:00.277Z,29.80
2022-08-17T14:02:05.721Z,29.80
2022-08-17T14:05:09.276Z,30.40
2022-08-17T14:08:18.762Z,29.70
2022-08-17T14:11:24.006Z,31.90
2022-08-17T14:14:29.224Z,29.60
2022-08-17T14:17:38.089Z,29.60
2022-08-17T14:20:42.250Z,29.60
2022-08-17T14:23:54.570Z,29.60
2022-08-17T14:27:01.393Z,29.00
2022-08-17T14:30:07.700Z,29.50
2022-08-17T14:33:10.914Z,28.70
2022-08-17T14:36:14.187Z,29.50
2022-08-17T14:39:21.738Z,29.70
2022-08-17T14:42:26.268Z,29.90
2022-08-17T14:45:31.908Z,29.50
2022-08-17T14:48:38.536Z,29.40
2022-08-17T14:51:43.714Z,29.30
2022-08-17T14:54:51.509Z,29.20
2022-08-17T14:57:54.715Z,29.10
2022-08-17T15:00:58.558Z,29.10
2022-08-17T15:04:02.188Z,29.00
2022-08-17T15:07:07.270Z,28.90
2022-08-17T15:10:12.618Z,28.80
2022-08-17T15:13:22.625Z,28.70
2022-08-17T15:16:27.069Z,28.70
2022-08-17T15:19:30.474Z,28.60
2022-08-17T15:22:33.715Z,28.50
2022-08-17T15:25:38.347Z,28.60
2022-08-17T15:28:41.675Z,28.60
2022-08-17T15:31:45.791Z,28.50
2022-08-17T15:34:49.523Z,28.60
2022-08-17T15:37:52.701Z,28.50
2022-08-17T15:40:58.604Z,28.50
2022-08-17T15:44:02.508Z,28.40
2022-08-17T15:47:06.267Z,28.30
2022-08-17T15:50:10.709Z,28.30
2022-08-17T15:53:14.308Z,28.10
2022-08-17T15:56:19.300Z,28.20
2022-08-17T15:59:22.674Z,28.20
2022-08-17T16:03:44.312Z,28.10
2022-08-17T16:05:55.217Z,28.00
2022-08-17T16:08:59.786Z,26.30
2022-08-17T16:12:14.259Z,28.10
2022-08-17T16:15:18.751Z,27.80
2022-08-17T16:18:22.778Z,27.90
2022-08-17T16:21:31.291Z,27.90
2022-08-17T16:24:57.328Z,27.90
2022-08-17T16:28:02.272Z,28.00
2022-08-17T16:31:08.016Z,28.00
2022-08-17T16:34:17.457Z,28.30
2022-08-17T16:37:21.791Z,28.00
2022-08-17T16:40:29.061Z,27.60
2022-08-17T16:43:34.692Z,27.90
2022-08-17T16:46:38.044Z,30.40
2022-08-17T16:49:41.305Z,26.80
2022-08-17T16:52:45.623Z,27.90
2022-08-17T16:55:51.853Z,27.90
2022-08-17T16:58:56.437Z,25.90
2022-08-17T17:02:26.888Z,27.70
2022-08-17T17:05:58.654Z,27.70
2022-08-17T17:09:07.185Z,27.60
2022-08-17T17:12:19.838Z,27.60
2022-08-17T17:15:58.824Z,27.50
2022-08-17T17:19:11.898Z,27.50
2022-08-17T17:22:20.119Z,27.40
2022-08-17T17:25:33.856Z,27.30
2022-08-17T17:29:01.541Z,27.20
2022-08-17T17:32:20.857Z,27.10
2022-08-17T17:35:32.003Z,26.90
2022-08-17T17:38:44.545Z,24.40
2022-08-17T17:41:54.668Z,26.70
2022-08-17T17:45:08.538Z,26.70
2022-08-17T17:48:13.399Z,26.50
2022-08-17T17:51:55.647Z,26.50
2022-08-17T17:55:05.354Z,26.40
2022-08-17T17:58:27.323Z,25.60
2022-08-17T18:01:49.348Z,26.30
2022-08-17T18:05:08.352Z,27.30
2022-08-17T18:08:33.816Z,26.20
2022-08-17T18:12:13.132Z,26.20
2022-08-17T18:15:29.556Z,26.20
2022-08-17T18:18:39.845Z,27.10
2022-08-17T18:21:52.142Z,26.00
2022-08-17T18:24:57.276Z,26.10
2022-08-17T18:28:00.563Z,26.10
2022-08-17T18:31:16.636Z,24.60
2022-08-17T18:34:46.497Z,25.90
2022-08-17T18:37:53.857Z,25.90
2022-08-17T18:41:19.222Z,25.90
2022-08-17T18:44:29.370Z,25.80
2022-08-17T18:47:32.717Z,25.80
2022-08-17T18:50:41.574Z,25.80
2022-08-17T18:53:47.403Z,25.80
2022-08-17T18:56:55.935Z,25.80
2022-08-17T19:00:00.785Z,23.30
2022-08-17T19:03:19.983Z,25.70
2022-08-17T19:06:32.844Z,25.70
2022-08-17T19:09:44.639Z,27.90
2022-08-17T19:13:00.648Z,25.60
2022-08-17T19:16:15.788Z,25.60
2022-08-17T19:19:29.065Z,25.50
2022-08-17T19:22:53.524Z,24.70
2022-08-17T19:26:01.618Z,27.30
2022-08-17T19:29:16.271Z,25.30
2022-08-17T19:32:28.643Z,25.10
2022-08-17T19:35:45.287Z,25.10
2022-08-17T19:39:03.410Z,25.00
2022-08-17T19:42:20.212Z,24.90
2022-08-17T19:45:46.367Z,24.90
2022-08-17T19:49:03.788Z,24.50
2022-08-17T19:52:34.382Z,26.30
2022-08-17T19:55:53.524Z,24.70
2022-08-17T19:59:07.850Z,24.20
2022-08-17T20:02:28.914Z,24.60
2022-08-17T20:06:01.311Z,22.20
2022-08-17T20:09:15.216Z,24.60
2022-08-17T20:12:25.283Z,26.70
2022-08-17T20:15:35.695Z,24.50
2022-08-17T20:18:50.654Z,24.40
2022-08-17T20:21:59.887Z,26.60
2022-08-17T20:25:10.986Z,24.40
2022-08-17T20:28:27.812Z,24.40
2022-08-17T20:31:48.518Z,24.30
2022-08-17T20:35:22.432Z,24.40
2022-08-17T20:38:43.363Z,24.40
2022-08-17T20:42:12.498Z,24.40
2022-08-17T20:46:07.851Z,24.40
2022-08-17T20:49:27.829Z,24.20
2022-08-17T20:52:53.184Z,24.40
2022-08-17T20:55:57.112Z,24.40
2022-08-17T20:59:00.688Z,24.30
2022-08-17T21:02:18.441Z,23.50
2022-08-17T21:05:34.360Z,24.20
2022-08-17T21:08:45.908Z,24.20
2022-08-17T21:12:04.960Z,24.20
2022-08-17T21:15:28.581Z,24.10
2022-08-17T21:18:42.476Z,24.10
2022-08-17T21:22:04.645Z,26.50
2022-08-17T21:25:28.138Z,24.00
2022-08-17T21:28:59.938Z,26.10
2022-08-17T21:32:24.246Z,23.80
2022-08-17T21:35:47.193Z,23.70
2022-08-17T21:39:03.704Z,23.70
2022-08-17T21:42:09.341Z,23.60
2022-08-17T21:45:24.856Z,23.50
2022-08-17T21:48:31.280Z,23.40
2022-08-17T21:51:43.959Z,23.40
2022-08-17T21:54:55.791Z,23.40
2022-08-17T21:58:14.882Z,23.30
2022-08-17T22:01:26.422Z,24.10
2022-08-17T22:04:33.266Z,23.20
2022-08-17T22:07:45.394Z,23.10
2022-08-17T22:10:51.967Z,23.10
2022-08-17T22:14:05.348Z,23.90
2022-08-17T22:17:18.738Z,24.20
2022-08-17T22:20:23.500Z,23.60
2022-08-17T22:23:49.907Z,23.00
2022-08-17T22:27:06.933Z,22.90
2022-08-17T22:30:20.940Z,22.80
2022-08-17T22:33:41.847Z,22.80
2022-08-17T22:36:45.184Z,22.50
2022-08-17T22:40:01.003Z,22.70
2022-08-17T22:43:12.000Z,22.20
2022-08-17T22:46:16.570Z,22.60
2022-08-17T22:49:29.153Z,22.60
2022-08-17T22:52:56.903Z,22.50
2022-08-17T22:56:17.920Z,22.50
2022-08-17T22:59:45.531Z,22.40
2022-08-17T23:03:15.114Z,22.40
2022-08-17T23:06:18.437Z,22.30
2022-08-17T23:09:22.304Z,22.20
2022-08-17T23:12:27.761Z,20.40
2022-08-17T23:15:33.916Z,22.20
2022-08-17T23:18:37.473Z,22.20
2022-08-17T23:21:41.429Z,20.90
2022-08-17T23:24:50.564Z,22.10
2022-08-17T23:27:54.416Z,22.10
2022-08-17T23:30:59.575Z,22.10
2022-08-17T23:34:04.461Z,22.10
2022-08-17T23:37:10.950Z,22.10
2022-08-17T23:43:24.180Z,22.10
2022-08-17T23:46:30.221Z,22.10
2022-08-17T23:49:33.789Z,22.10
2022-08-17T23:52:38.524Z,22.10
2022-08-17T23:55:41.708Z,22.00
2022-08-17T23:58:45.768Z,22.00
